createdAt,value
2022-11-04T00:00:28.499Z,11.16
2022-11-04T00:02:57.545Z,11.10
2022-11-04T00:05:25.150Z,11.06
2022-11-04T00:08:10.139Z,11.08
2022-11-04T00:10:56.572Z,11.09
2022-11-04T00:13:24.105Z,11.11
2022-11-04T00:16:09.263Z,11.05
2022-11-04T00:18:37.115Z,11.08
2022-11-04T00:21:22.137Z,11.09
2022-11-04T00:24:07.540Z,11.06
2022-11-04T00:26:54.016Z,11.09
2022-11-04T00:29:21.640Z,11.06
2022-11-04T00:32:03.177Z,11.03
2022-11-04T00:34:30.719Z,10.99
2022-11-04T00:36:58.487Z,11.02
2022-11-04T00:39:27.121Z,11.01
2022-11-04T00:41:57.149Z,10.93
2022-11-04T00:44:24.926Z,10.94
2022-11-04T00:46:52.501Z,10.97
2022-11-04T00:49:20.065Z,10.86
2022-11-04T00:51:47.633Z,10.93
2022-11-04T00:54:15.405Z,10.91
2022-11-04T00:56:43.439Z,10.90
2022-11-04T00:59:14.550Z,10.86
2022-11-04T01:01:43.752Z,10.89
2022-11-04T01:04:11.832Z,10.87
2022-11-04T01:06:39.836Z,10.85
2022-11-04T01:09:09.381Z,10.82
2022-11-04T01:11:36.951Z,10.85
2022-11-04T01:14:04.507Z,10.87
2022-11-04T01:16:33.630Z,10.87
2022-11-04T01:19:02.674Z,10.87
2022-11-04T01:21:30.216Z,10.81
2022-11-04T01:23:57.842Z,10.85
2022-11-04T01:26:27.421Z,10.90
2022-11-04T01:28:56.634Z,10.81
2022-11-04T01:31:27.121Z,10.83
2022-11-04T01:33:56.801Z,10.86
2022-11-04T01:36:25.617Z,10.77
2022-11-04T01:38:53.257Z,10.79
2022-11-04T01:41:22.726Z,10.82
2022-11-04T01:43:52.750Z,10.80
2022-11-04T01:46:28.959Z,10.76
2022-11-04T01:49:04.024Z,10.77
2022-11-04T01:51:36.014Z,10.65
2022-11-04T01:54:06.148Z,10.69
2022-11-04T01:56:35.015Z,10.66
2022-11-04T01:59:09.983Z,10.74
2022-11-04T02:01:37.955Z,10.62
2022-11-04T02:04:25.057Z,10.74
2022-11-04T02:06:55.521Z,10.70
2022-11-04T02:09:25.095Z,10.67
2022-11-04T02:12:10.468Z,10.62
2022-11-04T02:14:38.336Z,10.66
2022-11-04T02:17:18.313Z,10.65
2022-11-04T02:20:09.663Z,10.53
2022-11-04T02:22:59.886Z,10.76
2022-11-04T02:26:03.187Z,10.52
2022-11-04T02:28:52.208Z,10.45
2022-11-04T02:31:28.717Z,10.54
2022-11-04T02:34:06.475Z,10.44
2022-11-04T02:36:43.049Z,10.42
2022-11-04T02:39:21.684Z,10.35
2022-11-04T02:41:57.559Z,10.33
2022-11-04T02:44:31.627Z,10.26
2022-11-04T02:47:04.548Z,10.33
2022-11-04T02:49:39.388Z,10.27
2022-11-04T02:52:09.647Z,10.38
2022-11-04T02:54:43.166Z,10.33
2022-11-04T02:57:15.147Z,10.30
2022-11-04T02:59:47.557Z,10.24
2022-11-04T03:02:23.671Z,10.27
2022-11-04T03:04:53.513Z,10.28
2022-11-04T03:07:25.289Z,10.35
2022-11-04T03:09:57.559Z,10.26
2022-11-04T03:12:29.852Z,10.19
2022-11-04T03:15:03.880Z,10.19
2022-11-04T03:17:36.706Z,10.25
2022-11-04T03:20:08.592Z,10.13
2022-11-04T03:22:38.724Z,10.20
2022-11-04T03:25:09.053Z,10.17
2022-11-04T03:27:46.977Z,10.15
2022-11-04T03:33:02.102Z,10.19
2022-11-04T03:35:30.062Z,10.10
2022-11-04T03:37:58.933Z,10.06
2022-11-04T03:40:28.077Z,10.04
2022-11-04T03:43:00.265Z,10.09
2022-11-04T03:45:28.492Z,10.14
2022-11-04T03:47:57.933Z,10.10
2022-11-04T03:50:35.018Z,10.09
2022-11-04T03:53:02.620Z,10.03
2022-11-04T03:55:39.649Z,9.90
2022-11-04T03:58:16.185Z,10.02
2022-11-04T04:00:50.736Z,9.96
2022-11-04T04:03:26.456Z,9.94
2022-11-04T04:05:56.757Z,10.00
2022-11-04T04:08:35.400Z,10.00
2022-11-04T04:11:10.609Z,10.03
2022-11-04T04:13:45.952Z,10.01
2022-11-04T04:16:20.075Z,10.04
2022-11-04T04:18:57.550Z,10.05
2022-11-04T04:21:30.880Z,10.02
2022-11-04T04:24:18.336Z,9.96
2022-11-04T04:27:05.149Z,9.89
2022-11-04T04:29:33.485Z,9.83
2022-11-04T04:32:03.041Z,9.82
2022-11-04T04:34:34.178Z,9.74
2022-11-04T04:37:04.548Z,9.73
2022-11-04T04:39:55.348Z,9.60
2022-11-04T04:42:40.840Z,9.79
2022-11-04T04:45:09.976Z,9.70
2022-11-04T04:47:42.832Z,9.70
2022-11-04T04:50:13.980Z,9.78
2022-11-04T04:52:44.062Z,9.85
2022-11-04T04:55:12.867Z,9.85
2022-11-04T04:57:40.520Z,9.56
2022-11-04T05:00:10.480Z,9.67
2022-11-04T05:02:38.204Z,9.69
2022-11-04T05:05:07.041Z,9.76
2022-11-04T05:07:36.033Z,9.73
2022-11-04T05:10:03.835Z,9.82
2022-11-04T05:12:52.001Z,9.82
2022-11-04T05:15:19.571Z,9.79
2022-11-04T05:17:47.164Z,9.82
2022-11-04T05:20:14.839Z,9.84
2022-11-04T05:22:43.735Z,9.86
2022-11-04T05:25:11.496Z,9.88
2022-11-04T05:27:39.145Z,9.89
2022-11-04T05:30:08.429Z,9.95
2022-11-04T05:32:36.219Z,9.92
2022-11-04T05:35:04.291Z,10.00
2022-11-04T05:37:32.908Z,10.03
2022-11-04T05:40:01.850Z,10.00
2022-11-04T05:42:30.472Z,10.04
2022-11-04T05:44:58.025Z,10.07
2022-11-04T05:47:25.586Z,9.98
2022-11-04T05:49:53.224Z,9.32
2022-11-04T05:52:20.795Z,8.87
2022-11-04T05:54:48.405Z,9.29
2022-11-04T05:57:17.324Z,9.14
2022-11-04T05:59:46.008Z,9.33
2022-11-04T06:02:13.783Z,9.51
2022-11-04T06:04:41.784Z,9.64
2022-11-04T06:07:10.335Z,9.55
2022-11-04T06:09:41.047Z,9.53
2022-11-04T06:12:11.275Z,9.08
2022-11-04T06:14:40.169Z,9.41
2022-11-04T06:17:08.002Z,9.60
2022-11-04T06:19:35.634Z,9.45
2022-11-04T06:22:04.107Z,9.44
2022-11-04T06:24:31.650Z,9.41
2022-11-04T06:26:59.325Z,9.39
2022-11-04T06:29:26.913Z,9.43
2022-11-04T06:31:55.847Z,9.34
2022-11-04T06:34:23.423Z,9.44
2022-11-04T06:36:51.180Z,9.22
2022-11-04T06:39:18.749Z,9.15
2022-11-04T06:41:50.434Z,9.21
2022-11-04T06:44:19.540Z,9.23
2022-11-04T06:46:47.271Z,9.34
2022-11-04T06:49:18.724Z,9.42
2022-11-04T06:51:46.757Z,9.33
2022-11-04T06:54:15.359Z,9.48
2022-11-04T06:56:43.422Z,9.47
2022-11-04T06:59:16.151Z,9.50
2022-11-04T07:01:44.036Z,9.29
2022-11-04T07:04:11.640Z,9.54
2022-11-04T07:06:44.280Z,9.55
2022-11-04T07:09:14.103Z,9.72
2022-11-04T07:11:42.946Z,9.77
2022-11-04T07:14:10.988Z,9.60
2022-11-04T07:16:38.631Z,9.49
2022-11-04T07:19:06.351Z,9.66
2022-11-04T07:21:34.092Z,9.74
2022-11-04T07:24:03.436Z,9.72
2022-11-04T07:26:31.065Z,9.55
2022-11-04T07:29:00.801Z,9.55
2022-11-04T07:31:28.999Z,9.14
2022-11-04T07:33:57.569Z,9.67
2022-11-04T07:36:25.219Z,9.70
2022-11-04T07:38:52.879Z,9.87
2022-11-04T07:41:22.897Z,10.00
2022-11-04T07:43:53.029Z,10.01
2022-11-04T07:46:21.681Z,9.79
2022-11-04T07:48:49.246Z,9.68
2022-11-04T07:51:21.079Z,9.39
2022-11-04T07:53:48.879Z,9.48
2022-11-04T07:56:16.495Z,10.10
2022-11-04T07:58:46.532Z,10.26
2022-11-04T08:01:16.193Z,10.81
2022-11-04T08:03:44.042Z,11.00
2022-11-04T08:06:13.840Z,10.80
2022-11-04T08:08:43.439Z,11.21
2022-11-04T08:11:17.067Z,11.36
2022-11-04T08:13:48.697Z,11.46
2022-11-04T08:16:18.277Z,11.63
2022-11-04T08:18:46.713Z,11.72
2022-11-04T08:21:15.054Z,11.72
2022-11-04T08:23:42.917Z,11.66
2022-11-04T08:26:11.794Z,11.70
2022-11-04T08:28:39.675Z,11.60
2022-11-04T08:31:11.799Z,11.30
2022-11-04T08:33:40.754Z,11.65
2022-11-04T08:36:10.541Z,11.66
2022-11-04T08:38:39.810Z,11.65
2022-11-04T08:41:10.376Z,11.59
2022-11-04T08:43:38.373Z,11.61
2022-11-04T08:46:10.377Z,11.63
2022-11-04T08:48:39.356Z,11.57
2022-11-04T08:51:12.098Z,11.56
2022-11-04T08:53:39.684Z,11.02
2022-11-04T08:56:12.162Z,11.37
2022-11-04T08:58:39.771Z,11.58
2022-11-04T09:01:10.780Z,11.75
2022-11-04T09:03:39.380Z,11.89
2022-11-04T09:06:10.693Z,11.95
2022-11-04T09:08:40.042Z,11.61
2022-11-04T09:11:09.113Z,11.99
2022-11-04T09:13:39.690Z,12.25
2022-11-04T09:16:10.905Z,12.53
2022-11-04T09:18:38.509Z,12.52
2022-11-04T09:21:08.219Z,12.36
2022-11-04T09:23:35.881Z,12.43
2022-11-04T09:26:08.693Z,12.02
2022-11-04T09:28:36.606Z,12.43
2022-11-04T09:31:10.107Z,12.66
2022-11-04T09:33:37.707Z,12.59
2022-11-04T09:36:06.024Z,12.53
2022-11-04T09:38:35.081Z,12.55
2022-11-04T09:41:02.842Z,12.72
2022-11-04T09:43:51.462Z,12.84
2022-11-04T09:46:21.692Z,12.61
2022-11-04T09:48:53.656Z,12.34
2022-11-04T09:51:48.008Z,12.62
2022-11-04T09:54:17.670Z,12.67
2022-11-04T09:56:49.924Z,12.48
2022-11-04T09:59:22.474Z,12.57
2022-11-04T10:02:02.982Z,12.54
2022-11-04T10:04:45.577Z,12.57
2022-11-04T10:07:24.503Z,12.58
2022-11-04T10:10:02.812Z,12.66
2022-11-04T10:12:56.963Z,12.44
2022-11-04T10:15:39.404Z,12.56
2022-11-04T10:18:22.555Z,12.21
2022-11-04T10:20:57.976Z,12.38
2022-11-04T10:23:33.927Z,12.23
2022-11-04T10:26:10.533Z,12.33
2022-11-04T10:28:43.401Z,12.43
2022-11-04T10:31:15.283Z,12.49
2022-11-04T10:33:48.274Z,12.45
2022-11-04T10:36:17.956Z,12.45
2022-11-04T10:38:48.654Z,12.78
2022-11-04T10:41:28.417Z,12.86
2022-11-04T10:44:02.928Z,12.47
2022-11-04T10:46:45.789Z,12.51
2022-11-04T10:49:37.453Z,12.55
2022-11-04T10:52:07.467Z,12.85
2022-11-04T10:54:41.109Z,12.78
2022-11-04T10:57:10.883Z,12.89
2022-11-04T10:59:49.565Z,12.82
2022-11-04T11:02:17.867Z,12.40
2022-11-04T11:04:47.810Z,12.42
2022-11-04T11:07:22.677Z,12.31
2022-11-04T11:09:54.629Z,12.36
2022-11-04T11:12:50.080Z,12.44
2022-11-04T11:15:35.003Z,12.34
2022-11-04T11:18:15.335Z,12.31
2022-11-04T11:20:50.064Z,12.19
2022-11-04T11:23:36.438Z,12.39
2022-11-04T11:26:05.497Z,12.36
2022-11-04T11:28:37.952Z,12.46
2022-11-04T11:31:13.084Z,12.45
2022-11-04T11:33:49.176Z,12.53
2022-11-04T11:36:22.948Z,12.44
2022-11-04T11:39:04.026Z,12.62
2022-11-04T11:41:33.498Z,12.73
2022-11-04T11:44:05.736Z,12.87
2022-11-04T11:46:35.235Z,12.81
2022-11-04T11:49:05.089Z,13.10
2022-11-04T11:51:35.740Z,13.60
2022-11-04T11:54:24.314Z,13.66
2022-11-04T12:02:42.813Z,14.30
2022-11-04T12:11:10.724Z,14.28
2022-11-04T12:13:43.181Z,14.27
2022-11-04T12:16:22.736Z,13.84
2022-11-04T12:19:20.766Z,13.65
2022-11-04T12:21:55.485Z,13.33
2022-11-04T12:24:35.441Z,13.40
2022-11-04T12:27:13.778Z,14.14
2022-11-04T12:29:56.042Z,14.40
2022-11-04T12:32:33.687Z,14.92
2022-11-04T12:35:16.959Z,15.93
2022-11-04T12:37:58.527Z,17.11
2022-11-04T12:40:30.388Z,17.80
2022-11-04T12:43:13.866Z,18.42
2022-11-04T12:45:52.858Z,19.58
2022-11-04T12:48:52.999Z,19.32
2022-11-04T12:51:33.469Z,17.02
2022-11-04T12:54:27.809Z,15.70
2022-11-04T12:57:11.847Z,14.98
2022-11-04T12:59:54.304Z,14.56
2022-11-04T13:02:25.895Z,14.06
2022-11-04T13:05:01.832Z,13.88
2022-11-04T13:07:32.269Z,13.78
2022-11-04T13:10:04.746Z,13.30
2022-11-04T13:12:39.044Z,13.54
2022-11-04T13:15:17.131Z,13.35
2022-11-04T13:17:46.487Z,13.31
2022-11-04T13:20:28.536Z,13.10
2022-11-04T13:23:03.401Z,13.00
2022-11-04T13:25:40.434Z,13.13
2022-11-04T13:28:13.194Z,12.80
2022-11-04T13:30:48.624Z,12.82
2022-11-04T13:33:26.787Z,12.75
2022-11-04T13:36:02.123Z,13.19
2022-11-04T13:38:33.779Z,13.08
2022-11-04T13:41:21.318Z,12.99
2022-11-04T13:43:54.139Z,13.01
2022-11-04T13:46:30.533Z,13.01
2022-11-04T13:49:05.692Z,13.08
2022-11-04T13:51:44.545Z,13.32
2022-11-04T13:54:27.627Z,13.68
2022-11-04T13:57:06.551Z,13.86
2022-11-04T13:59:36.802Z,13.52
2022-11-04T14:02:39.660Z,13.75
2022-11-04T14:05:53.156Z,13.41
2022-11-04T14:08:21.529Z,13.21
2022-11-04T14:11:08.965Z,13.12
2022-11-04T14:13:47.652Z,12.75
2022-11-04T14:16:44.145Z,12.70
2022-11-04T14:19:57.774Z,12.43
2022-11-04T14:22:49.504Z,12.44
2022-11-04T14:25:24.844Z,12.21
2022-11-04T14:27:54.998Z,12.13
2022-11-04T14:30:45.607Z,12.31
2022-11-04T14:33:28.140Z,11.77
2022-11-04T14:35:58.189Z,11.91
2022-11-04T14:38:29.731Z,11.85
2022-11-04T14:41:22.327Z,12.01
2022-11-04T14:43:51.035Z,12.14
2022-11-04T14:46:24.276Z,12.04
2022-11-04T14:48:55.952Z,11.99
2022-11-04T14:51:27.659Z,12.09
2022-11-04T14:54:01.417Z,11.75
2022-11-04T14:56:28.978Z,11.99
2022-11-04T14:59:01.430Z,11.91
2022-11-04T15:01:35.022Z,11.89
2022-11-04T15:04:15.069Z,12.07
2022-11-04T15:06:58.455Z,12.11
2022-11-04T15:09:28.557Z,12.05
2022-11-04T15:12:24.507Z,12.33
2022-11-04T15:14:52.346Z,12.21
2022-11-04T15:17:22.932Z,12.46
2022-11-04T15:19:54.636Z,12.55
2022-11-04T15:22:23.173Z,12.45
2022-11-04T15:24:51.559Z,12.51
2022-11-04T15:27:21.335Z,12.55
2022-11-04T15:29:55.408Z,12.34
2022-11-04T15:32:23.925Z,12.03
2022-11-04T15:34:54.633Z,12.40
2022-11-04T15:37:23.565Z,12.24
2022-11-04T15:39:53.763Z,12.22
2022-11-04T15:42:43.027Z,12.24
2022-11-04T15:45:35.892Z,12.34
2022-11-04T15:48:29.728Z,12.42
2022-11-04T15:51:19.685Z,12.23
2022-11-04T15:53:54.537Z,11.95
2022-11-04T15:56:25.876Z,11.90
2022-11-04T15:58:55.617Z,11.77
2022-11-04T16:01:23.974Z,11.67
2022-11-04T16:03:54.121Z,11.68
2022-11-04T16:06:36.809Z,11.63
2022-11-04T16:09:18.426Z,11.67
2022-11-04T16:12:08.773Z,11.50
2022-11-04T16:14:36.578Z,11.55
2022-11-04T16:17:04.334Z,11.66
2022-11-04T16:19:32.814Z,11.70
2022-11-04T16:22:05.743Z,11.82
2022-11-04T16:24:35.799Z,11.77
2022-11-04T16:27:03.449Z,11.76
2022-11-04T16:29:32.671Z,11.87
2022-11-04T16:32:17.883Z,11.88
2022-11-04T16:34:46.219Z,11.71
2022-11-04T16:37:15.111Z,11.40
2022-11-04T16:39:45.012Z,11.10
2022-11-04T16:42:14.497Z,10.95
2022-11-04T16:44:47.856Z,10.90
2022-11-04T16:47:15.502Z,10.78
2022-11-04T16:49:43.055Z,10.73
2022-11-04T16:52:16.665Z,10.63
2022-11-04T16:54:44.197Z,10.37
2022-11-04T16:57:14.626Z,10.50
2022-11-04T16:59:42.587Z,10.43
2022-11-04T17:02:20.161Z,10.50
2022-11-04T17:04:47.975Z,10.51
2022-11-04T17:07:16.819Z,10.48
2022-11-04T17:09:44.456Z,10.49
2022-11-04T17:12:11.962Z,10.58
2022-11-04T17:14:39.840Z,10.54
2022-11-04T17:17:09.448Z,10.43
2022-11-04T17:19:37.015Z,10.35
2022-11-04T17:22:07.884Z,10.22
2022-11-04T17:24:37.463Z,10.35
2022-11-04T17:27:06.362Z,10.35
2022-11-04T17:29:36.039Z,10.27
2022-11-04T17:32:03.598Z,10.20
2022-11-04T17:34:31.126Z,10.17
2022-11-04T17:36:58.683Z,10.13
2022-11-04T17:39:26.200Z,10.09
2022-11-04T17:42:12.624Z,10.12
2022-11-04T17:44:40.229Z,10.13
2022-11-04T17:47:07.986Z,10.07
2022-11-04T17:49:37.996Z,10.02
2022-11-04T17:52:05.911Z,10.05
2022-11-04T17:54:33.484Z,10.00
2022-11-04T17:57:02.402Z,9.96
2022-11-04T17:59:35.379Z,9.89
2022-11-04T18:02:04.321Z,10.01
2022-11-04T18:04:32.054Z,10.05
2022-11-04T18:07:02.817Z,10.05
2022-11-04T18:09:31.026Z,10.02
2022-11-04T18:12:16.149Z,10.02
2022-11-04T18:14:45.050Z,9.96
2022-11-04T18:17:12.612Z,9.85
2022-11-04T18:19:40.371Z,9.79
2022-11-04T18:22:07.946Z,9.83
2022-11-04T18:24:35.992Z,9.79
2022-11-04T18:27:03.653Z,9.79
2022-11-04T18:29:31.666Z,9.80
2022-11-04T18:32:01.256Z,9.94
2022-11-04T18:34:28.980Z,9.95
2022-11-04T18:36:58.271Z,9.80
2022-11-04T18:39:26.141Z,9.72
2022-11-04T18:41:53.741Z,9.80
2022-11-04T18:44:24.124Z,9.73
2022-11-04T18:46:51.715Z,9.73
2022-11-04T18:49:21.092Z,9.70
2022-11-04T18:51:48.680Z,9.66
2022-11-04T18:54:16.452Z,9.71
2022-11-04T18:56:44.007Z,9.70
2022-11-04T18:59:12.819Z,9.71
2022-11-04T19:01:40.557Z,9.84
2022-11-04T19:04:09.651Z,9.79
2022-11-04T19:06:42.643Z,9.94
2022-11-04T19:09:44.896Z,9.95
2022-11-04T19:12:18.395Z,9.86
2022-11-04T19:14:45.953Z,9.79
2022-11-04T19:17:13.615Z,9.83
2022-11-04T19:19:41.540Z,9.95
2022-11-04T19:22:11.091Z,9.82
2022-11-04T19:24:39.463Z,9.88
2022-11-04T19:27:07.337Z,9.89
2022-11-04T19:29:34.941Z,9.96
2022-11-04T19:32:02.693Z,9.91
2022-11-04T19:34:30.473Z,9.84
2022-11-04T19:36:58.368Z,9.88
2022-11-04T19:39:27.868Z,9.88
2022-11-04T19:42:12.940Z,9.90
2022-11-04T19:44:41.244Z,9.89
2022-11-04T19:47:09.396Z,9.86
2022-11-04T19:49:39.107Z,9.89
2022-11-04T19:52:06.781Z,9.77
2022-11-04T19:54:35.872Z,9.82
2022-11-04T19:57:03.578Z,9.87
2022-11-04T19:59:31.408Z,9.80
2022-11-04T20:01:59.309Z,9.90
2022-11-04T20:04:27.132Z,9.80
2022-11-04T20:06:54.829Z,9.88
2022-11-04T20:09:22.609Z,9.92
2022-11-04T20:12:14.157Z,9.91
2022-11-04T20:14:42.412Z,9.82
2022-11-04T20:17:10.096Z,9.80
2022-11-04T20:19:37.811Z,9.82
2022-11-04T20:22:05.787Z,9.83
2022-11-04T20:24:33.562Z,9.79
2022-11-04T20:27:02.693Z,9.76
2022-11-04T20:29:30.429Z,9.80
2022-11-04T20:31:58.366Z,9.72
2022-11-04T20:34:31.673Z,9.86
2022-11-04T20:37:00.411Z,9.83
2022-11-04T20:39:28.076Z,9.78
2022-11-04T20:41:55.780Z,9.80
2022-11-04T20:44:24.845Z,9.81
2022-11-04T20:46:52.744Z,9.84
2022-11-04T20:49:20.596Z,9.88
2022-11-04T20:51:54.857Z,9.89
2022-11-04T20:54:23.327Z,9.86
2022-11-04T20:56:50.985Z,9.85
2022-11-04T20:59:18.753Z,9.87
2022-11-04T21:01:50.254Z,9.82
2022-11-04T21:04:20.354Z,9.89
2022-11-04T21:06:48.960Z,9.84
2022-11-04T21:09:18.330Z,9.82
2022-11-04T21:11:45.888Z,9.78
2022-11-04T21:14:16.158Z,9.73
2022-11-04T21:16:44.340Z,9.73
2022-11-04T21:19:14.451Z,9.71
2022-11-04T21:21:43.071Z,9.64
2022-11-04T21:24:13.224Z,9.67
2022-11-04T21:26:40.967Z,9.70
2022-11-04T21:29:12.668Z,9.60
2022-11-04T21:31:41.084Z,9.68
2022-11-04T21:34:08.821Z,9.77
2022-11-04T21:36:37.991Z,9.79
2022-11-04T21:39:06.168Z,9.74
2022-11-04T21:41:37.103Z,9.75
2022-11-04T21:44:08.179Z,9.73
2022-11-04T21:46:36.808Z,9.71
2022-11-04T21:49:04.878Z,9.72
2022-11-04T21:51:36.001Z,9.67
2022-11-04T21:54:07.891Z,9.72
2022-11-04T21:56:36.313Z,9.74
2022-11-04T21:59:04.608Z,9.78
2022-11-04T22:01:32.780Z,9.75
2022-11-04T22:04:01.963Z,9.79
2022-11-04T22:06:34.556Z,9.81
2022-11-04T22:09:03.530Z,9.83
2022-11-04T22:11:34.064Z,9.80
2022-11-04T22:14:03.808Z,9.75
2022-11-04T22:16:33.576Z,9.88
2022-11-04T22:19:02.713Z,9.92
2022-11-04T22:21:32.252Z,9.88
2022-11-04T22:24:00.807Z,9.85
2022-11-04T22:26:30.758Z,9.87
2022-11-04T22:29:00.658Z,9.80
2022-11-04T22:31:30.471Z,9.75
2022-11-04T22:33:59.492Z,9.81
2022-11-04T22:36:27.364Z,9.89
2022-11-04T22:38:55.820Z,9.82
2022-11-04T22:41:25.532Z,9.70
2022-11-04T22:43:53.091Z,9.56
2022-11-04T22:46:25.205Z,9.69
2022-11-04T22:48:52.904Z,9.74
2022-11-04T22:51:20.885Z,9.75
2022-11-04T22:53:56.107Z,9.72
2022-11-04T22:56:25.622Z,9.78
2022-11-04T22:58:54.083Z,9.86
2022-11-04T23:01:25.851Z,9.81
2022-11-04T23:03:53.884Z,9.64
2022-11-04T23:06:21.511Z,9.80
2022-11-04T23:08:49.164Z,9.82
2022-11-04T23:11:36.293Z,9.81
2022-11-04T23:14:21.367Z,9.78
2022-11-04T23:17:09.802Z,9.75
2022-11-04T23:19:38.349Z,9.64
2022-11-04T23:22:24.086Z,9.57
2022-11-04T23:25:07.181Z,9.59
2022-11-04T23:27:53.132Z,9.57
2022-11-04T23:30:25.419Z,9.59
2022-11-04T23:32:56.670Z,9.71
2022-11-04T23:35:43.780Z,9.66
2022-11-04T23:38:11.630Z,9.65
2022-11-04T23:40:39.966Z,9.69
2022-11-04T23:43:06.978Z,9.72
2022-11-04T23:45:52.204Z,9.60
2022-11-04T23:48:38.767Z,9.65
2022-11-04T23:51:24.335Z,9.49
2022-11-04T23:54:09.484Z,9.55
2022-11-04T23:56:54.797Z,9.58
2022-11-04T23:59:39.822Z,9.59
